CKH2 weather

Rocanville Airport
Rocanville, Saskatchewan, Canada

Public forecast

Using degrees Celsius for public forecast. Weather courtesy of forecast.io.

Closest aviation weather report (METAR) to Rocanville Airport

Closest report is Yorkton Municipal Airport, 59.1 nm (109.4 km) NW. Retrieved 2019/10/15 20:00 UTC (1 minute ago):

CYQV 152000Z AUTO 31010KT 300V010 9SM OVC024 04/M01 A3016 RMK SLP236

Closest aviation forecast (TAF) to Rocanville Airport

Closest forecast is Yorkton Municipal Airport, 59.1 nm (109.4 km) NW. Retrieved 2019/10/15 18:39 UTC (1 hour ago):

TAF CYQV 151738Z 1518/1606 33012G22KT P6SM OVC015 TEMPO 1518/1521 OVC025 FM152100 32010G20KT P6SM BKN025 TEMPO 1521/1606 BKN015 BECMG 1600/1602 VRB03KT RMK FCST BASED ON AUTO OBS NXT FCST BY 160000Z